Time;durP1;ratioP1;P1;durP2;ratioP2;P2;SDS_P1;SDS_P2;PMS_P1;PMS_P2;Temp;Humidity;BMP_temperature;BMP_pressure;BME280_temperature;BME280_humidity;BME280_pressure;Samples;Min_cycle;Max_cycle;Signal;HPM_P1;HPM_P2
2022/01/16 00:00:57;;;;;;;37.80;16.25;;;;;;;;;;5054091;28;20119;-70
2022/01/16 00:06:06;;;;;;;29.75;15.68;;;;;;;;;;5055902;28;20098;-71
2022/01/16 00:08:32;;;;;;;32.58;15.82;;;;;;;;;;5055172;28;20161;-70
2022/01/16 00:10:59;;;;;;;26.17;16.02;;;;;;;;;;5054826;28;20082;-71
2022/01/16 00:13:24;;;;;;;31.27;15.55;;;;;;;;;;5054987;28;20024;-71
2022/01/16 00:15:50;;;;;;;27.95;15.77;;;;;;;;;;5053510;28;20039;-71
2022/01/16 00:18:49;;;;;;;27.60;15.82;;;;;;;;;;5052206;28;20056;-71
2022/01/16 00:21:06;;;;;;;40.00;16.73;;;;;;;;;;5047599;28;20058;-71
2022/01/16 00:23:32;;;;;;;58.50;17.55;;;;;;;;;;5051089;28;20036;-71
2022/01/16 00:25:57;;;;;;;33.42;16.73;;;;;;;;;;5052437;28;20595;-70
2022/01/16 00:28:23;;;;;;;45.70;16.02;;;;;;;;;;5049805;28;20566;-71
2022/01/16 00:30:49;;;;;;;75.20;16.65;;;;;;;;;;5047755;28;20487;-70
2022/01/16 00:33:14;;;;;;;33.33;15.63;;;;;;;;;;5054048;28;20032;-71
2022/01/16 00:35:39;;;;;;;37.95;16.38;;;;;;;;;;5053473;28;20031;-71
2022/01/16 00:38:05;;;;;;;33.85;15.38;;;;;;;;;;5053987;28;20028;-70
2022/01/16 00:40:31;;;;;;;26.45;14.82;;;;;;;;;;5038594;28;20041;-70
2022/01/16 00:42:57;;;;;;;25.45;14.50;;;;;;;;;;5053427;28;20062;-70
2022/01/16 00:45:25;;;;;;;20.70;13.13;;;;;;;;;;5053803;28;20032;-70
2022/01/16 00:47:50;;;;;;;25.25;13.48;;;;;;;;;;5055179;28;20499;-70
2022/01/16 00:50:16;;;;;;;22.88;13.32;;;;;;;;;;5049167;28;20056;-70
2022/01/16 00:52:41;;;;;;;23.75;14.98;;;;;;;;;;5050896;28;20055;-70
2022/01/16 00:55:07;;;;;;;25.48;14.50;;;;;;;;;;5047932;28;20623;-71
2022/01/16 00:57:32;;;;;;;24.65;14.43;;;;;;;;;;5054815;28;20415;-70
2022/01/16 00:59:57;;;;;;;43.50;14.00;;;;;;;;;;5051252;28;20061;-71
2022/01/16 01:02:23;;;;;;;24.33;13.57;;;;;;;;;;5040208;28;20072;-70
2022/01/16 01:04:49;;;;;;;24.60;14.15;;;;;;;;;;5051113;28;20462;-71
2022/01/16 01:07:14;;;;;;;24.10;13.80;;;;;;;;;;5051350;28;20024;-71
2022/01/16 01:09:39;;;;;;;23.60;13.82;;;;;;;;;;5042891;28;20068;-70
2022/01/16 01:12:06;;;;;;;25.65;14.18;;;;;;;;;;5047808;28;20039;-71
2022/01/16 01:14:52;;;;;;;23.08;12.43;;;;;;;;;;5045530;28;20140;-71
2022/01/16 01:17:23;;;;;;;23.23;13.68;;;;;;;;;;5051979;28;20033;-70
2022/01/16 01:19:48;;;;;;;28.60;14.63;;;;;;;;;;5036508;28;20033;-70
2022/01/16 01:22:14;;;;;;;29.80;14.52;;;;;;;;;;5051050;28;20038;-70
2022/01/16 01:24:39;;;;;;;21.85;13.40;;;;;;;;;;5047271;28;20119;-70
2022/01/16 01:27:23;;;;;;;23.30;13.57;;;;;;;;;;5049586;28;20127;-71
2022/01/16 01:29:55;;;;;;;20.20;12.45;;;;;;;;;;5049750;28;20055;-71
2022/01/16 01:32:21;;;;;;;23.98;11.63;;;;;;;;;;5037987;28;20033;-71
2022/01/16 01:34:46;;;;;;;22.85;13.88;;;;;;;;;;5047826;28;20052;-71
2022/01/16 01:37:12;;;;;;;31.80;13.43;;;;;;;;;;5050868;28;20028;-70
2022/01/16 01:39:37;;;;;;;26.25;13.80;;;;;;;;;;5063527;28;20056;-71
2022/01/16 01:42:07;;;;;;;22.88;13.80;;;;;;;;;;5049345;28;20029;-71
2022/01/16 01:52:45;;;;;;;36.67;15.38;;;;;;;;;;5048734;28;20095;-70
2022/01/16 01:55:10;;;;;;;24.90;13.27;;;;;;;;;;5049778;28;20508;-71
2022/01/16 01:57:35;;;;;;;30.05;13.75;;;;;;;;;;5033454;28;20086;-70
2022/01/16 02:00:01;;;;;;;21.83;13.95;;;;;;;;;;5049853;28;20066;-70
2022/01/16 02:02:31;;;;;;;29.00;14.63;;;;;;;;;;5050343;28;20126;-70
2022/01/16 02:04:56;;;;;;;25.88;14.75;;;;;;;;;;5049261;28;20118;-70
2022/01/16 02:07:21;;;;;;;52.75;16.05;;;;;;;;;;5048698;28;20040;-70
2022/01/16 02:09:47;;;;;;;27.00;14.82;;;;;;;;;;5050540;28;20308;-71
2022/01/16 02:12:12;;;;;;;23.58;14.13;;;;;;;;;;5052853;28;20667;-70
2022/01/16 02:15:02;;;;;;;21.05;12.98;;;;;;;;;;5035913;28;20063;-70
2022/01/16 02:28:41;;;;;;;20.08;12.43;;;;;;;;;;5051479;28;20032;-71
2022/01/16 02:31:22;;;;;;;23.00;13.30;;;;;;;;;;5046983;28;20045;-70
2022/01/16 02:36:43;;;;;;;23.08;13.98;;;;;;;;;;5047033;28;20055;-71
2022/01/16 02:39:11;;;;;;;21.05;12.02;;;;;;;;;;5048659;28;20479;-70
2022/01/16 02:41:37;;;;;;;18.67;11.52;;;;;;;;;;5049801;28;20036;-71
2022/01/16 02:44:12;;;;;;;26.38;13.00;;;;;;;;;;5047824;28;20048;-71
2022/01/16 02:46:39;;;;;;;25.60;13.93;;;;;;;;;;5047611;28;20581;-71
2022/01/16 02:49:15;;;;;;;29.92;13.95;;;;;;;;;;5034772;28;20032;-70
2022/01/16 02:51:40;;;;;;;23.52;13.10;;;;;;;;;;5048796;28;20599;-70
2022/01/16 02:54:05;;;;;;;21.70;12.20;;;;;;;;;;5051271;28;20060;-70
2022/01/16 02:56:35;;;;;;;18.85;12.20;;;;;;;;;;5051532;28;20073;-70
2022/01/16 02:59:00;;;;;;;18.55;12.13;;;;;;;;;;5053365;28;20681;-70
2022/01/16 03:01:25;;;;;;;17.58;11.23;;;;;;;;;;5052262;28;20063;-71
2022/01/16 03:03:51;;;;;;;16.85;10.65;;;;;;;;;;5052945;28;20127;-70
2022/01/16 03:06:16;;;;;;;17.80;11.25;;;;;;;;;;5052666;28;20056;-70
2022/01/16 03:08:41;;;;;;;17.23;10.93;;;;;;;;;;5053371;28;20034;-70
2022/01/16 03:11:22;;;;;;;15.80;10.43;;;;;;;;;;5051354;28;20561;-70
2022/01/16 03:13:50;;;;;;;16.02;10.00;;;;;;;;;;5050963;28;20032;-70
2022/01/16 03:16:16;;;;;;;16.88;10.50;;;;;;;;;;5035845;28;20576;-70
2022/01/16 03:24:09;;;;;;;17.70;10.75;;;;;;;;;;5054626;28;20089;-71
2022/01/16 03:26:35;;;;;;;17.58;10.63;;;;;;;;;;5052612;28;20044;-71
2022/01/16 03:29:00;;;;;;;16.52;10.15;;;;;;;;;;5054949;28;20043;-70
2022/01/16 03:31:25;;;;;;;15.27;9.48;;;;;;;;;;5053072;28;20071;-71
2022/01/16 03:33:51;;;;;;;15.38;9.75;;;;;;;;;;5054382;28;20120;-70
2022/01/16 03:36:16;;;;;;;13.20;8.98;;;;;;;;;;5052881;28;20115;-70
2022/01/16 03:38:41;;;;;;;16.63;10.30;;;;;;;;;;5051628;28;20115;-71
2022/01/16 03:41:08;;;;;;;15.52;9.65;;;;;;;;;;5051859;28;20028;-70
2022/01/16 03:43:33;;;;;;;14.23;9.13;;;;;;;;;;5051139;28;20067;-70
2022/01/16 03:46:00;;;;;;;11.90;8.52;;;;;;;;;;5053320;28;20130;-71
2022/01/16 03:48:25;;;;;;;14.85;9.38;;;;;;;;;;5051135;28;20033;-70
2022/01/16 03:50:50;;;;;;;14.32;8.95;;;;;;;;;;5050950;28;20113;-70
2022/01/16 03:53:16;;;;;;;13.82;8.73;;;;;;;;;;5053491;28;20064;-70
2022/01/16 03:55:41;;;;;;;13.50;9.38;;;;;;;;;;5052979;28;20066;-70
2022/01/16 03:58:07;;;;;;;20.05;10.05;;;;;;;;;;5052431;28;20028;-70
2022/01/16 04:00:32;;;;;;;16.95;9.75;;;;;;;;;;5049696;28;20068;-70
2022/01/16 04:02:57;;;;;;;14.73;9.35;;;;;;;;;;5051001;28;20079;-70
2022/01/16 04:05:23;;;;;;;15.82;9.45;;;;;;;;;;5050949;28;20373;-70
2022/01/16 04:07:48;;;;;;;19.13;9.77;;;;;;;;;;5052301;28;20419;-70
2022/01/16 04:10:13;;;;;;;17.90;9.77;;;;;;;;;;5051465;28;20037;-70
2022/01/16 04:12:39;;;;;;;17.70;10.57;;;;;;;;;;5068863;28;20495;-70
2022/01/16 04:17:36;;;;;;;23.42;11.80;;;;;;;;;;5050981;28;20067;-70
2022/01/16 04:20:02;;;;;;;21.02;11.75;;;;;;;;;;5050674;28;20028;-70
2022/01/16 04:22:27;;;;;;;20.65;11.93;;;;;;;;;;5051839;28;20040;-70
2022/01/16 04:24:52;;;;;;;26.70;14.13;;;;;;;;;;5054795;28;20060;-70
2022/01/16 04:27:18;;;;;;;24.20;13.25;;;;;;;;;;5055783;28;20113;-70
2022/01/16 04:29:43;;;;;;;23.13;12.80;;;;;;;;;;5050140;28;20123;-71
2022/01/16 04:32:08;;;;;;;23.08;12.57;;;;;;;;;;5051494;28;20097;-70
2022/01/16 04:34:34;;;;;;;21.17;11.70;;;;;;;;;;5053479;28;20554;-70
2022/01/16 04:36:59;;;;;;;19.65;11.40;;;;;;;;;;5051421;28;20423;-70
2022/01/16 04:39:31;;;;;;;19.65;11.48;;;;;;;;;;5050694;28;20481;-70
2022/01/16 04:44:41;;;;;;;;;;;;;;;;;;5054065;28;20162;-70
2022/01/16 04:47:06;;;;;;;17.95;10.40;;;;;;;;;;5051899;28;19932;-70
2022/01/16 04:49:32;;;;;;;19.45;11.23;;;;;;;;;;5050213;28;20035;-70
2022/01/16 04:51:57;;;;;;;20.55;10.80;;;;;;;;;;5050632;28;20517;-70
2022/01/16 04:54:22;;;;;;;20.67;11.55;;;;;;;;;;5051208;28;20475;-70
2022/01/16 04:56:48;;;;;;;18.33;10.90;;;;;;;;;;5050850;28;20508;-70
2022/01/16 04:59:13;;;;;;;16.77;10.30;;;;;;;;;;5054173;28;20931;-70
2022/01/16 05:01:39;;;;;;;17.48;11.18;;;;;;;;;;5049400;28;20174;-70
2022/01/16 05:04:04;;;;;;;15.85;10.40;;;;;;;;;;5049771;28;20052;-70
2022/01/16 05:06:29;;;;;;;19.80;10.32;;;;;;;;;;5048734;28;20120;-70
2022/01/16 05:08:55;;;;;;;18.75;11.20;;;;;;;;;;5051340;28;21741;-71
2022/01/16 05:11:25;;;;;;;17.77;11.18;;;;;;;;;;5052212;28;20348;-70
2022/01/16 05:19:00;;;;;;;14.75;9.05;;;;;;;;;;5051395;28;20097;-71
2022/01/16 05:21:25;;;;;;;14.50;9.00;;;;;;;;;;5051880;28;20028;-70
2022/01/16 05:23:50;;;;;;;14.50;9.15;;;;;;;;;;5053068;28;20048;-70
2022/01/16 05:26:25;;;;;;;15.15;9.13;;;;;;;;;;5051303;28;20132;-70
2022/01/16 05:28:50;;;;;;;14.63;8.82;;;;;;;;;;5023581;28;20063;-70
2022/01/16 05:31:16;;;;;;;15.48;9.13;;;;;;;;;;5050297;28;20578;-70
2022/01/16 05:33:41;;;;;;;12.85;9.10;;;;;;;;;;5050198;28;20123;-70
2022/01/16 05:36:07;;;;;;;14.43;9.32;;;;;;;;;;5051802;28;20021;-70
2022/01/16 05:38:32;;;;;;;15.60;9.40;;;;;;;;;;5050484;28;20056;-70
2022/01/16 05:40:57;;;;;;;13.52;9.00;;;;;;;;;;5050139;28;20084;-70
2022/01/16 05:43:23;;;;;;;13.55;8.52;;;;;;;;;;5051937;28;20086;-71
2022/01/16 05:45:48;;;;;;;12.63;8.32;;;;;;;;;;5049226;28;20488;-71
2022/01/16 05:48:13;;;;;;;15.82;9.20;;;;;;;;;;5052179;28;20056;-71
2022/01/16 05:50:38;;;;;;;13.25;8.30;;;;;;;;;;5050573;28;20126;-71
2022/01/16 05:53:04;;;;;;;16.23;9.32;;;;;;;;;;5054406;28;20060;-71
2022/01/16 05:55:36;;;;;;;14.52;9.40;;;;;;;;;;5052011;28;20494;-71
2022/01/16 05:58:04;;;;;;;15.18;8.63;;;;;;;;;;5049706;28;20124;-71
2022/01/16 06:00:30;;;;;;;13.70;8.32;;;;;;;;;;5050817;28;20044;-71
2022/01/16 06:02:56;;;;;;;14.07;8.98;;;;;;;;;;5034512;28;20216;-71
2022/01/16 06:05:21;;;;;;;12.95;8.20;;;;;;;;;;5048573;28;20103;-71
2022/01/16 06:07:52;;;;;;;13.52;8.93;;;;;;;;;;5050017;28;20067;-71
2022/01/16 06:10:18;;;;;;;14.45;8.38;;;;;;;;;;5049723;28;20570;-71
2022/01/16 06:12:43;;;;;;;15.18;8.63;;;;;;;;;;5049005;28;20031;-71
2022/01/16 06:15:08;;;;;;;14.43;8.27;;;;;;;;;;5049536;28;20028;-71
2022/01/16 06:17:34;;;;;;;13.10;8.10;;;;;;;;;;5048208;28;20029;-71
2022/01/16 06:19:59;;;;;;;15.77;9.10;;;;;;;;;;5050425;28;20055;-71
2022/01/16 06:22:24;;;;;;;15.25;8.90;;;;;;;;;;5047721;28;20087;-71
2022/01/16 06:24:50;;;;;;;18.23;8.82;;;;;;;;;;5049696;28;20474;-71
2022/01/16 06:27:15;;;;;;;14.95;8.80;;;;;;;;;;5048603;28;20598;-71
2022/01/16 06:29:40;;;;;;;16.55;9.65;;;;;;;;;;5050627;28;20032;-71
2022/01/16 06:32:06;;;;;;;14.70;8.80;;;;;;;;;;5046293;28;20043;-71
2022/01/16 06:34:31;;;;;;;14.98;9.38;;;;;;;;;;5048010;28;20025;-71
2022/01/16 06:36:58;;;;;;;20.30;9.85;;;;;;;;;;5049155;28;20029;-71
2022/01/16 06:39:23;;;;;;;13.70;8.65;;;;;;;;;;5049089;28;20410;-71
2022/01/16 06:41:48;;;;;;;14.43;7.95;;;;;;;;;;5051807;28;20387;-70
2022/01/16 06:44:14;;;;;;;15.65;8.68;;;;;;;;;;5046868;28;20131;-71
2022/01/16 06:46:39;;;;;;;13.50;9.00;;;;;;;;;;5048047;28;20052;-71
2022/01/16 06:49:04;;;;;;;14.23;8.70;;;;;;;;;;5049917;28;20111;-70
2022/01/16 06:51:30;;;;;;;16.80;9.50;;;;;;;;;;5049901;28;20822;-71
2022/01/16 06:53:56;;;;;;;16.67;9.05;;;;;;;;;;5051850;28;20115;-70
2022/01/16 06:56:22;;;;;;;15.95;9.13;;;;;;;;;;5047001;28;20036;-71
2022/01/16 06:58:47;;;;;;;14.98;8.80;;;;;;;;;;5051545;28;20499;-71
2022/01/16 07:01:16;;;;;;;14.18;8.27;;;;;;;;;;5047581;28;20490;-71
2022/01/16 07:03:41;;;;;;;13.43;7.75;;;;;;;;;;5049879;28;20491;-71
2022/01/16 07:06:06;;;;;;;12.30;7.70;;;;;;;;;;5063973;28;20082;-71
2022/01/16 07:08:32;;;;;;;15.57;8.88;;;;;;;;;;5050436;28;20805;-71
2022/01/16 07:10:57;;;;;;;14.20;7.43;;;;;;;;;;5047717;28;20078;-71
2022/01/16 07:13:23;;;;;;;16.65;8.02;;;;;;;;;;5039318;28;20125;-72
2022/01/16 07:15:49;;;;;;;10.15;6.28;;;;;;;;;;5040179;28;20036;-71
2022/01/16 07:18:15;;;;;;;15.23;7.60;;;;;;;;;;5049538;28;20078;-71
2022/01/16 07:20:40;;;;;;;12.57;6.78;;;;;;;;;;5051994;28;20029;-72
2022/01/16 07:23:05;;;;;;;11.10;6.38;;;;;;;;;;5052448;28;20475;-71
2022/01/16 07:25:30;;;;;;;11.00;6.00;;;;;;;;;;5034040;28;20582;-71
2022/01/16 07:27:56;;;;;;;7.22;4.82;;;;;;;;;;5052520;28;20420;-71
2022/01/16 07:30:21;;;;;;;9.77;4.90;;;;;;;;;;5046865;28;20479;-70
2022/01/16 07:32:46;;;;;;;5.88;4.00;;;;;;;;;;5050292;28;20064;-71
2022/01/16 07:35:12;;;;;;;5.38;3.55;;;;;;;;;;5033058;28;20494;-72
2022/01/16 07:37:37;;;;;;;5.10;3.33;;;;;;;;;;5051263;28;20505;-71
2022/01/16 07:40:03;;;;;;;3.75;2.65;;;;;;;;;;5050621;28;20115;-71
2022/01/16 07:42:28;;;;;;;3.00;2.70;;;;;;;;;;5052045;28;20039;-72
2022/01/16 07:44:53;;;;;;;4.25;2.78;;;;;;;;;;5049007;28;20160;-71
2022/01/16 07:47:19;;;;;;;3.85;2.40;;;;;;;;;;5052480;28;20056;-71
2022/01/16 07:49:44;;;;;;;2.95;2.25;;;;;;;;;;5051821;28;20035;-71
2022/01/16 07:52:09;;;;;;;3.70;2.22;;;;;;;;;;5050692;28;20148;-71
2022/01/16 07:54:34;;;;;;;3.10;2.40;;;;;;;;;;5049333;28;20090;-71
2022/01/16 07:57:00;;;;;;;3.05;2.35;;;;;;;;;;5049312;28;20024;-71
2022/01/16 07:59:25;;;;;;;3.40;2.60;;;;;;;;;;5050798;28;20110;-71
2022/01/16 08:01:50;;;;;;;4.25;2.38;;;;;;;;;;5049821;28;20148;-71
2022/01/16 08:04:16;;;;;;;3.63;2.45;;;;;;;;;;5055205;28;20032;-70
2022/01/16 08:06:41;;;;;;;2.90;2.40;;;;;;;;;;5056075;28;20361;-70
2022/01/16 08:09:06;;;;;;;3.40;2.10;;;;;;;;;;5055949;28;20497;-70
2022/01/16 08:11:32;;;;;;;3.55;2.53;;;;;;;;;;5050413;28;20501;-72
2022/01/16 08:13:57;;;;;;;4.32;2.65;;;;;;;;;;5046834;28;20590;-71
2022/01/16 08:16:22;;;;;;;6.90;2.50;;;;;;;;;;5035103;28;20102;-71
2022/01/16 08:18:48;;;;;;;3.15;2.45;;;;;;;;;;5051460;28;20079;-71
2022/01/16 08:21:13;;;;;;;3.58;2.70;;;;;;;;;;5049640;28;20632;-71
2022/01/16 08:23:38;;;;;;;4.43;2.67;;;;;;;;;;5049943;28;20440;-71
2022/01/16 08:26:04;;;;;;;4.28;2.70;;;;;;;;;;5049822;28;20039;-71
2022/01/16 08:28:29;;;;;;;3.42;2.50;;;;;;;;;;5048233;28;20028;-71
2022/01/16 08:30:55;;;;;;;3.65;2.47;;;;;;;;;;5032735;28;20075;-71
2022/01/16 08:33:20;;;;;;;3.20;2.17;;;;;;;;;;5050226;28;20449;-71
2022/01/16 08:35:46;;;;;;;4.00;2.63;;;;;;;;;;5048892;28;20499;-71
2022/01/16 08:38:11;;;;;;;4.38;2.65;;;;;;;;;;5049587;28;20510;-71
2022/01/16 08:40:36;;;;;;;3.25;2.40;;;;;;;;;;5050759;28;20408;-71
2022/01/16 08:43:08;;;;;;;4.30;2.83;;;;;;;;;;5052303;28;20036;-71
2022/01/16 08:45:34;;;;;;;3.80;2.65;;;;;;;;;;5051986;28;21726;-71
2022/01/16 08:47:59;;;;;;;3.42;2.42;;;;;;;;;;5050895;28;20031;-71
2022/01/16 08:50:24;;;;;;;3.25;2.38;;;;;;;;;;5047028;28;20072;-70
2022/01/16 08:52:50;;;;;;;4.22;2.50;;;;;;;;;;5048729;28;20525;-71
2022/01/16 08:55:15;;;;;;;6.20;3.22;;;;;;;;;;5050092;28;20427;-70
2022/01/16 08:57:41;;;;;;;3.35;2.50;;;;;;;;;;5050093;28;20572;-71
2022/01/16 09:00:06;;;;;;;3.80;2.85;;;;;;;;;;5049949;28;20032;-71
2022/01/16 09:02:32;;;;;;;4.43;2.85;;;;;;;;;;5049965;28;20194;-71
2022/01/16 09:04:57;;;;;;;5.75;2.80;;;;;;;;;;5034796;28;20086;-71
2022/01/16 09:07:23;;;;;;;6.85;2.70;;;;;;;;;;5053860;28;20280;-70
2022/01/16 09:09:48;;;;;;;4.50;3.03;;;;;;;;;;5049449;28;20491;-71
2022/01/16 09:12:13;;;;;;;5.88;3.38;;;;;;;;;;5048467;28;20036;-71
2022/01/16 09:14:39;;;;;;;6.00;2.95;;;;;;;;;;5018478;28;20056;-71
2022/01/16 09:17:04;;;;;;;5.63;3.45;;;;;;;;;;5049440;28;20483;-70
2022/01/16 09:19:29;;;;;;;13.40;8.52;;;;;;;;;;5048733;28;21497;-70
2022/01/16 09:21:55;;;;;;;4.45;3.00;;;;;;;;;;5048006;28;20490;-70
2022/01/16 09:24:21;;;;;;;6.25;3.78;;;;;;;;;;5049924;28;20035;-71
2022/01/16 09:26:46;;;;;;;5.35;3.45;;;;;;;;;;5049725;28;20444;-71
2022/01/16 09:29:11;;;;;;;6.82;3.75;;;;;;;;;;5052635;28;20032;-71
2022/01/16 09:31:37;;;;;;;5.47;3.60;;;;;;;;;;5052423;28;20156;-71
2022/01/16 09:34:02;;;;;;;5.20;3.30;;;;;;;;;;5052797;28;20434;-71
2022/01/16 09:36:27;;;;;;;5.88;3.40;;;;;;;;;;5049418;28;20023;-71
2022/01/16 09:38:52;;;;;;;4.93;3.10;;;;;;;;;;5045924;28;20036;-71
2022/01/16 09:41:18;;;;;;;5.88;3.22;;;;;;;;;;5050571;28;20024;-71
2022/01/16 09:43:43;;;;;;;3.50;2.92;;;;;;;;;;5033820;28;20032;-71
2022/01/16 09:46:08;;;;;;;4.90;3.13;;;;;;;;;;5036766;28;20028;-71
2022/01/16 09:48:34;;;;;;;5.15;3.58;;;;;;;;;;5049858;28;20036;-71
2022/01/16 09:50:59;;;;;;;4.47;3.17;;;;;;;;;;5044239;28;20451;-71
2022/01/16 09:53:25;;;;;;;4.45;3.00;;;;;;;;;;5030669;28;20032;-71
2022/01/16 09:55:50;;;;;;;4.35;3.08;;;;;;;;;;5043037;28;20452;-71
2022/01/16 09:58:16;;;;;;;6.05;3.67;;;;;;;;;;5045357;28;20029;-71
2022/01/16 10:00:41;;;;;;;5.15;2.80;;;;;;;;;;5051420;28;20139;-71
2022/01/16 10:03:06;;;;;;;4.38;3.08;;;;;;;;;;5063349;28;20036;-71
2022/01/16 10:05:35;;;;;;;5.68;3.35;;;;;;;;;;5041952;28;21092;-71
2022/01/16 10:08:01;;;;;;;4.75;3.20;;;;;;;;;;5046082;28;20055;-71
2022/01/16 10:10:31;;;;;;;5.00;3.15;;;;;;;;;;5050931;28;20123;-71
2022/01/16 10:13:04;;;;;;;4.72;2.90;;;;;;;;;;5048484;28;20106;-71
2022/01/16 10:15:30;;;;;;;4.23;3.10;;;;;;;;;;5051062;28;20051;-71
2022/01/16 10:17:57;;;;;;;5.82;3.45;;;;;;;;;;5018142;28;20119;-71
2022/01/16 10:20:23;;;;;;;5.03;3.30;;;;;;;;;;5048910;28;20024;-71
2022/01/16 10:22:49;;;;;;;5.25;3.50;;;;;;;;;;5049587;28;20024;-71
2022/01/16 10:25:16;;;;;;;6.40;3.88;;;;;;;;;;5048062;28;20181;-70
2022/01/16 10:27:43;;;;;;;6.30;3.70;;;;;;;;;;5053984;28;20040;-70
2022/01/16 10:30:12;;;;;;;4.35;3.42;;;;;;;;;;5047531;28;20029;-70
2022/01/16 10:32:41;;;;;;;7.03;3.70;;;;;;;;;;5030438;28;20067;-70
2022/01/16 10:35:11;;;;;;;7.45;4.35;;;;;;;;;;5050587;28;20085;-71
2022/01/16 10:37:36;;;;;;;6.32;3.85;;;;;;;;;;5046376;28;20028;-70
2022/01/16 10:40:14;;;;;;;6.13;4.45;;;;;;;;;;5048529;28;20025;-71
2022/01/16 10:42:40;;;;;;;10.57;5.78;;;;;;;;;;5048455;28;20040;-70
2022/01/16 10:45:07;;;;;;;6.45;4.78;;;;;;;;;;5049037;28;20032;-71
2022/01/16 10:47:54;;;;;;;7.05;5.20;;;;;;;;;;5051230;28;20115;-71
2022/01/16 10:50:35;;;;;;;11.80;5.68;;;;;;;;;;5036794;28;20036;-70
2022/01/16 10:53:11;;;;;;;9.65;5.78;;;;;;;;;;5051421;28;20037;-71
2022/01/16 10:55:47;;;;;;;12.35;6.78;;;;;;;;;;5049281;28;20051;-71
2022/01/16 10:58:18;;;;;;;10.45;6.20;;;;;;;;;;5048530;28;20029;-70
2022/01/16 11:00:56;;;;;;;10.20;6.38;;;;;;;;;;5048945;28;20048;-71
2022/01/16 11:03:22;;;;;;;10.98;5.53;;;;;;;;;;5050305;28;20033;-70
2022/01/16 11:05:49;;;;;;;10.38;5.68;;;;;;;;;;5034642;28;20648;-71
2022/01/16 11:08:25;;;;;;;10.10;5.75;;;;;;;;;;5036190;28;20567;-71
2022/01/16 11:10:52;;;;;;;9.98;5.75;;;;;;;;;;5034573;28;20107;-70
2022/01/16 11:13:21;;;;;;;8.50;5.43;;;;;;;;;;5048155;28;20119;-71
2022/01/16 11:15:49;;;;;;;7.65;5.30;;;;;;;;;;5054747;28;20033;-70
2022/01/16 11:18:15;;;;;;;9.48;5.72;;;;;;;;;;5054047;28;20024;-70
2022/01/16 11:20:44;;;;;;;10.02;6.05;;;;;;;;;;5056124;28;20028;-70
2022/01/16 11:25:50;;;;;;;9.32;5.82;;;;;;;;;;5055455;28;20047;-71
2022/01/16 11:28:17;;;;;;;9.98;5.60;;;;;;;;;;5053615;28;20059;-71
2022/01/16 11:30:49;;;;;;;8.02;5.68;;;;;;;;;;5053709;28;20071;-71
2022/01/16 11:33:15;;;;;;;7.15;5.05;;;;;;;;;;5052880;28;20051;-70
2022/01/16 11:36:02;;;;;;;9.15;5.25;;;;;;;;;;5051133;28;20033;-71
2022/01/16 11:38:33;;;;;;;10.85;5.22;;;;;;;;;;5067267;28;20044;-70
2022/01/16 11:41:11;;;;;;;6.22;4.70;;;;;;;;;;5050165;28;20155;-71
2022/01/16 11:43:36;;;;;;;7.32;4.93;;;;;;;;;;5049994;28;20036;-69
2022/01/16 11:46:06;;;;;;;9.82;5.53;;;;;;;;;;5059114;28;20071;-70
2022/01/16 11:48:47;;;;;;;8.88;5.15;;;;;;;;;;5062515;28;20674;-70
2022/01/16 11:51:31;;;;;;;7.68;5.28;;;;;;;;;;5053335;28;20055;-70
2022/01/16 11:54:07;;;;;;;8.63;4.93;;;;;;;;;;5053266;28;20040;-70
2022/01/16 11:56:41;;;;;;;9.13;5.30;;;;;;;;;;5070680;28;20028;-70
2022/01/16 11:59:20;;;;;;;;;;;;;;;;;;5054023;28;20054;-70
2022/01/16 12:01:57;;;;;;;7.03;5.22;;;;;;;;;;5053551;28;19920;-70
2022/01/16 12:04:28;;;;;;;6.88;4.45;;;;;;;;;;5054161;28;20411;-69
2022/01/16 12:07:09;;;;;;;6.93;4.80;;;;;;;;;;5051251;28;20304;-70
2022/01/16 12:09:38;;;;;;;8.10;5.00;;;;;;;;;;5053575;28;20168;-70
2022/01/16 12:12:10;;;;;;;7.78;5.18;;;;;;;;;;5054141;28;20117;-70
2022/01/16 12:14:53;;;;;;;7.53;4.90;;;;;;;;;;5068429;28;20566;-70
2022/01/16 12:17:30;;;;;;;8.45;5.30;;;;;;;;;;5051852;28;20036;-70
2022/01/16 12:20:17;;;;;;;9.35;5.22;;;;;;;;;;5052713;28;20117;-70
2022/01/16 12:22:46;;;;;;;8.45;5.65;;;;;;;;;;5044302;28;20502;-70
2022/01/16 12:25:37;;;;;;;8.82;5.45;;;;;;;;;;5052487;28;20464;-70
2022/01/16 12:28:08;;;;;;;9.35;5.03;;;;;;;;;;5029547;28;20083;-70
2022/01/16 12:30:50;;;;;;;8.05;4.75;;;;;;;;;;5052261;28;20051;-70
2022/01/16 12:33:16;;;;;;;10.45;4.53;;;;;;;;;;5054288;28;20097;-69
2022/01/16 12:35:46;;;;;;;6.05;4.55;;;;;;;;;;5052913;28;20431;-70
2022/01/16 12:38:14;;;;;;;6.22;4.45;;;;;;;;;;5050710;28;20038;-70
2022/01/16 12:40:42;;;;;;;5.82;4.38;;;;;;;;;;5053376;28;20094;-70
2022/01/16 12:43:10;;;;;;;7.47;4.40;;;;;;;;;;5048317;28;20024;-70
2022/01/16 12:45:36;;;;;;;5.45;4.18;;;;;;;;;;5049541;28;20119;-70
2022/01/16 12:48:02;;;;;;;8.43;3.65;;;;;;;;;;5050633;28;20032;-70
2022/01/16 12:50:30;;;;;;;5.50;3.97;;;;;;;;;;5052872;28;20411;-70
2022/01/16 12:52:56;;;;;;;5.15;4.07;;;;;;;;;;5052815;28;20098;-70
2022/01/16 12:55:28;;;;;;;5.13;3.60;;;;;;;;;;5053976;28;20040;-70
2022/01/16 12:57:53;;;;;;;5.43;3.58;;;;;;;;;;5055127;28;20036;-70
2022/01/16 13:00:19;;;;;;;3.65;3.15;;;;;;;;;;5047417;28;20481;-70
2022/01/16 13:02:44;;;;;;;3.67;2.92;;;;;;;;;;5053650;28;20394;-70
2022/01/16 13:05:19;;;;;;;2.85;2.58;;;;;;;;;;5051339;28;20181;-71
2022/01/16 13:07:44;;;;;;;4.40;2.80;;;;;;;;;;5050590;28;20029;-70
2022/01/16 13:10:10;;;;;;;3.58;3.20;;;;;;;;;;5047757;28;20445;-71
2022/01/16 13:12:35;;;;;;;5.00;3.33;;;;;;;;;;5045233;28;20476;-70
2022/01/16 13:15:00;;;;;;;5.82;4.13;;;;;;;;;;5049213;28;20562;-70
2022/01/16 13:17:26;;;;;;;5.07;3.53;;;;;;;;;;5048743;28;20031;-70
2022/01/16 13:19:53;;;;;;;4.95;3.58;;;;;;;;;;5047785;28;20044;-70
2022/01/16 13:22:23;;;;;;;5.35;3.75;;;;;;;;;;5047474;28;20032;-70
2022/01/16 13:25:00;;;;;;;4.00;3.33;;;;;;;;;;5051015;28;20548;-70
2022/01/16 13:27:32;;;;;;;4.68;3.47;;;;;;;;;;5048393;28;20507;-70
2022/01/16 13:29:59;;;;;;;4.03;3.63;;;;;;;;;;5045295;28;20143;-70
2022/01/16 13:32:35;;;;;;;4.20;3.08;;;;;;;;;;5050505;28;20044;-70
2022/01/16 13:35:02;;;;;;;4.53;3.40;;;;;;;;;;5049962;28;20035;-70
2022/01/16 13:37:28;;;;;;;3.65;3.30;;;;;;;;;;5032145;28;20029;-70
2022/01/16 13:40:10;;;;;;;4.40;3.58;;;;;;;;;;5047802;28;20024;-70
2022/01/16 13:45:32;;;;;;;3.53;2.97;;;;;;;;;;5051575;28;20124;-70
2022/01/16 13:47:59;;;;;;;3.08;2.65;;;;;;;;;;5047431;28;20385;-70
2022/01/16 13:50:29;;;;;;;5.80;3.17;;;;;;;;;;5044149;28;20040;-70
2022/01/16 13:52:57;;;;;;;3.97;2.92;;;;;;;;;;5048955;28;20061;-70
2022/01/16 13:55:23;;;;;;;2.70;2.50;;;;;;;;;;5048966;28;20512;-70
2022/01/16 13:57:48;;;;;;;4.57;3.35;;;;;;;;;;5048644;28;20040;-70
2022/01/16 14:00:14;;;;;;;4.18;2.97;;;;;;;;;;5048372;28;20036;-70
2022/01/16 14:02:39;;;;;;;3.50;3.20;;;;;;;;;;5050010;28;20130;-70
2022/01/16 14:05:05;;;;;;;5.13;3.03;;;;;;;;;;5050660;28;20499;-70
2022/01/16 14:07:30;;;;;;;3.67;2.90;;;;;;;;;;5030999;28;20043;-70
2022/01/16 14:09:56;;;;;;;4.43;3.33;;;;;;;;;;5048097;28;20502;-70
2022/01/16 14:12:24;;;;;;;5.53;3.70;;;;;;;;;;5047858;28;20611;-70
2022/01/16 14:14:49;;;;;;;4.00;3.50;;;;;;;;;;5047710;28;20063;-70
2022/01/16 14:17:29;;;;;;;4.78;3.60;;;;;;;;;;5046732;28;20062;-70
2022/01/16 14:20:21;;;;;;;4.15;3.22;;;;;;;;;;5039894;28;20126;-70
2022/01/16 14:22:40;;;;;;;5.10;3.35;;;;;;;;;;5050448;28;20044;-70
2022/01/16 14:25:05;;;;;;;4.05;2.92;;;;;;;;;;5047923;28;20584;-70
2022/01/16 14:27:33;;;;;;;4.53;3.35;;;;;;;;;;5049485;28;20042;-70
2022/01/16 14:30:00;;;;;;;4.03;3.25;;;;;;;;;;5017412;28;20042;-70
2022/01/16 14:32:25;;;;;;;4.97;3.60;;;;;;;;;;5036287;28;20765;-70
2022/01/16 14:34:53;;;;;;;5.15;3.50;;;;;;;;;;5047257;28;20033;-70
2022/01/16 14:37:18;;;;;;;5.05;3.60;;;;;;;;;;5048160;28;20028;-70
2022/01/16 14:39:45;;;;;;;8.43;3.92;;;;;;;;;;5057876;28;20029;-71
2022/01/16 14:42:11;;;;;;;5.05;3.90;;;;;;;;;;5025395;28;20858;-70
2022/01/16 14:44:38;;;;;;;7.22;3.85;;;;;;;;;;5056877;28;20039;-71
2022/01/16 14:47:06;;;;;;;6.20;4.30;;;;;;;;;;5056684;28;20372;-70
2022/01/16 14:49:31;;;;;;;5.10;3.97;;;;;;;;;;5056972;28;20036;-70
2022/01/16 14:51:56;;;;;;;7.60;4.22;;;;;;;;;;5060761;28;20047;-70
2022/01/16 14:54:22;;;;;;;6.63;3.58;;;;;;;;;;5060117;28;20554;-71
2022/01/16 14:56:47;;;;;;;6.03;3.70;;;;;;;;;;5062798;28;20017;-70
2022/01/16 14:59:13;;;;;;;7.72;3.70;;;;;;;;;;5060621;28;20115;-70
2022/01/16 15:01:38;;;;;;;5.00;3.50;;;;;;;;;;5062693;28;20199;-70
2022/01/16 15:04:04;;;;;;;4.90;3.40;;;;;;;;;;5055763;28;20029;-70
2022/01/16 15:06:29;;;;;;;6.82;3.88;;;;;;;;;;5058015;28;20025;-70
2022/01/16 15:08:57;;;;;;;4.93;3.30;;;;;;;;;;5054511;28;20028;-70
2022/01/16 15:11:23;;;;;;;5.93;3.97;;;;;;;;;;5038232;28;20031;-71
2022/01/16 15:13:48;;;;;;;4.82;3.55;;;;;;;;;;5059131;28;20028;-70
2022/01/16 15:16:15;;;;;;;5.05;3.60;;;;;;;;;;5060940;28;20025;-71
2022/01/16 15:18:42;;;;;;;5.32;3.78;;;;;;;;;;5060391;28;20437;-70
2022/01/16 15:21:08;;;;;;;5.35;3.58;;;;;;;;;;5045067;28;20402;-71